Lower Mammoth Reservoir Meter




Date Total AC/FT (AF) CFS (cfs) KGPM (gpm) CFS (cfs) GPM (gpm)
07/01/2018 3,088.00 13.80 30.75 13,800.00
07/02/2018 3,146.00 12.94 28.83 12,940.00
07/03/2018 3,207.00 14.25 31.75 14,250.00
07/04/2018 3,267.00 13.37 29.79 13,370.00
07/05/2018 3,323.00 10.94 24.37 10,940.00
07/06/2018 3,366.00 9.65 21.50 9,650.00
07/07/2018 3,410.00 10.01 22.30 10,010.00
07/08/2018 3,457.00 11.59 25.82 11,590.00
07/09/2018 3,509.00 11.51 25.64 11,510.00
07/10/2018 3,562.00 13.36 29.77 13,360.00
07/11/2018 3,624.00 13.47 30.01 13,470.00
07/12/2018 3,678.00 10.85 24.17 10,850.00
07/13/2018 3,721.00 8.82 19.65 8,820.00
07/14/2018 3,758.00 8.24 18.36 8,240.00
07/15/2018 3,795.00 8.52 18.98 8,520.00
07/16/2018 3,832.00 8.04 17.91 8,040.00
07/17/2018 3,832.00 8.04 17.91 8,040.00
07/18/2018 3,910.00 9.13 20.34 9,130.00
07/19/2018 3,948.00 8.53 19.00 8,530.00
07/20/2018 3,985.00 8.47 18.87 8,470.00
07/21/2018 4,026.00 9.54 21.26 9,540.00
07/22/2018 4,067.00 9.28 20.68 9,280.00
07/23/2018 4,111.00 10.83 24.13 10,830.00
07/24/2018 4,111.00 10.83 24.13 10,830.00
07/25/2018 4,111.00 10.83 24.13 10,830.00
07/26/2018 4,279.00 13.68 30.48 13,680.00
07/27/2018 4,338.00 13.30 29.63 13,300.00
07/28/2018 4,394.00 11.72 26.11 11,720.00
07/29/2018 4,442.00 9.43 21.01 9,430.00
07/30/2018 4,477.00 7.77 17.32 7,774.00
07/31/2018 4,516.00 9.88 22.01 9,880.00
Average 0.00 23.76
Maximum 31.75
Minimum 17.32
Total Volume (AF) 0.00 1,460.70